createdAt,value
2023-01-31T00:01:40.676Z,3.17
2023-01-31T00:04:17.474Z,2.27
2023-01-31T00:06:52.042Z,2.80
2023-01-31T00:09:24.992Z,3.23
2023-01-31T00:11:57.862Z,3.00
2023-01-31T00:14:30.786Z,3.73
2023-01-31T00:17:03.599Z,3.10
2023-01-31T00:19:38.554Z,2.57
2023-01-31T00:22:11.735Z,3.30
2023-01-31T00:24:44.559Z,2.73
2023-01-31T00:27:17.308Z,3.03
2023-01-31T00:29:50.102Z,3.70
2023-01-31T00:32:22.915Z,2.93
2023-01-31T00:34:57.212Z,3.00
2023-01-31T00:37:29.900Z,3.03
2023-01-31T00:40:02.728Z,2.93
2023-01-31T00:42:36.279Z,3.07
2023-01-31T00:45:09.506Z,3.10
2023-01-31T00:47:44.293Z,2.87
2023-01-31T00:50:18.669Z,2.90
2023-01-31T00:52:51.522Z,2.37
2023-01-31T00:55:24.598Z,2.30
2023-01-31T00:57:57.303Z,3.80
2023-01-31T01:00:30.250Z,1.93
2023-01-31T01:03:02.874Z,3.20
2023-01-31T01:05:37.426Z,2.13
2023-01-31T01:08:10.275Z,2.30
2023-01-31T01:10:42.898Z,3.00
2023-01-31T01:13:15.756Z,2.47
2023-01-31T01:15:49.012Z,2.37
2023-01-31T01:18:21.721Z,3.97
2023-01-31T01:20:55.934Z,3.30
2023-01-31T01:23:29.971Z,2.90
2023-01-31T01:26:04.923Z,2.70
2023-01-31T01:28:37.726Z,2.73
2023-01-31T01:31:11.612Z,2.20
2023-01-31T01:33:44.620Z,2.67
2023-01-31T01:36:24.102Z,2.13
2023-01-31T01:38:58.093Z,2.90
2023-01-31T01:41:33.427Z,1.80
2023-01-31T01:44:27.175Z,2.27
2023-01-31T01:47:00.233Z,2.53
2023-01-31T01:49:34.284Z,2.43
2023-01-31T01:52:10.165Z,3.07
2023-01-31T01:54:45.622Z,2.63
2023-01-31T01:57:28.130Z,2.30
2023-01-31T02:00:04.776Z,2.60
2023-01-31T02:02:38.089Z,2.87
2023-01-31T02:05:13.018Z,3.27
2023-01-31T02:07:47.411Z,2.03
2023-01-31T02:10:27.882Z,2.23
2023-01-31T02:13:01.097Z,2.37
2023-01-31T02:15:34.430Z,1.70
2023-01-31T02:18:07.788Z,2.47
2023-01-31T02:20:58.230Z,2.03
2023-01-31T02:23:54.859Z,2.97
2023-01-31T02:26:46.400Z,2.57
2023-01-31T02:29:29.057Z,2.70
2023-01-31T02:35:14.567Z,2.10
2023-01-31T02:37:52.359Z,2.40
2023-01-31T02:40:28.661Z,2.90
2023-01-31T02:43:08.094Z,2.33
2023-01-31T02:45:43.077Z,2.43
2023-01-31T02:48:20.362Z,2.37
2023-01-31T02:50:59.786Z,2.73
2023-01-31T02:53:35.278Z,3.13
2023-01-31T02:56:18.237Z,3.70
2023-01-31T02:58:55.317Z,2.77
2023-01-31T03:01:30.341Z,2.50
2023-01-31T03:04:05.578Z,2.30
2023-01-31T03:06:54.747Z,2.57
2023-01-31T03:09:42.362Z,2.00
2023-01-31T03:12:21.918Z,2.73
2023-01-31T03:15:01.106Z,2.50
2023-01-31T03:17:37.989Z,2.50
2023-01-31T03:20:13.099Z,1.70
2023-01-31T03:22:49.666Z,2.70
2023-01-31T03:25:24.612Z,2.40
2023-01-31T03:27:58.632Z,2.67
2023-01-31T03:30:34.041Z,2.83
2023-01-31T03:33:09.856Z,2.00
2023-01-31T03:35:43.458Z,2.47
2023-01-31T03:38:18.981Z,2.00
2023-01-31T03:40:55.955Z,2.23
2023-01-31T03:43:32.919Z,1.67
2023-01-31T03:46:08.686Z,2.10
2023-01-31T03:48:44.100Z,2.10
2023-01-31T03:51:20.097Z,2.87
2023-01-31T03:53:55.264Z,2.50
2023-01-31T03:56:30.264Z,3.07
2023-01-31T03:59:05.853Z,2.60
2023-01-31T04:01:40.546Z,2.43
2023-01-31T04:04:17.044Z,2.30
2023-01-31T04:06:49.840Z,1.60
2023-01-31T04:09:24.142Z,3.33
2023-01-31T04:12:00.322Z,3.00
2023-01-31T04:14:33.191Z,3.40
2023-01-31T04:17:06.017Z,2.50
2023-01-31T04:19:39.054Z,2.03
2023-01-31T04:22:12.004Z,3.33
2023-01-31T04:24:46.361Z,2.10
2023-01-31T04:27:19.105Z,2.73
2023-01-31T04:29:51.817Z,2.73
2023-01-31T04:32:24.597Z,2.90
2023-01-31T04:34:57.449Z,2.33
2023-01-31T04:37:30.372Z,3.07
2023-01-31T04:40:04.718Z,3.47
2023-01-31T04:42:37.577Z,2.73
2023-01-31T04:45:11.344Z,3.13
2023-01-31T04:47:44.110Z,2.23
2023-01-31T04:50:17.164Z,2.47
2023-01-31T04:52:50.660Z,2.73
2023-01-31T04:55:26.055Z,2.17
2023-01-31T04:57:59.852Z,3.07
2023-01-31T05:00:32.836Z,2.80
2023-01-31T05:03:06.151Z,2.60
2023-01-31T05:05:39.220Z,2.83
2023-01-31T05:08:12.025Z,2.60
2023-01-31T05:10:46.220Z,2.33
2023-01-31T05:13:19.241Z,2.60
2023-01-31T05:15:52.386Z,2.90
2023-01-31T05:18:25.125Z,2.60
2023-01-31T05:20:58.064Z,3.47
2023-01-31T05:23:31.469Z,1.33
2023-01-31T05:26:05.944Z,3.13
2023-01-31T05:28:38.898Z,2.93
2023-01-31T05:31:13.191Z,2.90
2023-01-31T05:33:47.248Z,2.83
2023-01-31T05:36:22.678Z,2.30
2023-01-31T05:38:57.797Z,2.97
2023-01-31T05:41:32.287Z,3.20
2023-01-31T05:44:05.397Z,2.07
2023-01-31T05:46:41.368Z,3.73
2023-01-31T05:49:14.235Z,2.60
2023-01-31T05:51:47.046Z,2.93
2023-01-31T05:54:19.918Z,3.40
2023-01-31T05:56:54.435Z,3.20
2023-01-31T05:59:31.208Z,3.07
2023-01-31T06:02:04.088Z,2.70
2023-01-31T06:04:36.987Z,3.30
2023-01-31T06:07:09.807Z,3.27
2023-01-31T06:09:43.090Z,2.67
2023-01-31T06:12:17.276Z,3.43
2023-01-31T06:14:50.904Z,2.63
2023-01-31T06:17:24.883Z,3.00
2023-01-31T06:19:59.194Z,3.43
2023-01-31T06:22:32.053Z,3.53
2023-01-31T06:25:05.161Z,3.30
2023-01-31T06:27:41.876Z,2.77
2023-01-31T06:30:15.097Z,2.40
2023-01-31T06:32:48.085Z,2.57
2023-01-31T06:35:21.576Z,3.50
2023-01-31T06:37:55.915Z,3.00
2023-01-31T06:40:28.899Z,2.60
2023-01-31T06:43:06.114Z,3.07
2023-01-31T06:45:39.077Z,2.60
2023-01-31T06:48:14.507Z,3.23
2023-01-31T06:50:47.723Z,2.17
2023-01-31T06:53:20.876Z,3.23
2023-01-31T06:55:53.975Z,3.20
2023-01-31T06:58:31.426Z,3.13
2023-01-31T07:01:10.729Z,3.27
2023-01-31T07:03:43.860Z,3.27
2023-01-31T07:06:23.167Z,2.83
2023-01-31T07:08:56.226Z,3.27
2023-01-31T07:11:29.449Z,3.27
2023-01-31T07:14:04.296Z,2.13
2023-01-31T07:16:38.188Z,3.27
2023-01-31T07:19:11.473Z,2.40
2023-01-31T07:21:44.799Z,2.63
2023-01-31T07:24:20.853Z,2.30
2023-01-31T07:26:56.976Z,2.53
2023-01-31T07:29:33.631Z,3.27
2023-01-31T07:32:06.602Z,2.17
2023-01-31T07:34:39.415Z,3.27
2023-01-31T07:37:12.362Z,1.77
2023-01-31T07:39:45.404Z,2.77
2023-01-31T07:42:19.977Z,3.00
2023-01-31T07:45:16.841Z,1.93
2023-01-31T07:47:54.535Z,3.00
2023-01-31T07:50:32.400Z,3.67
2023-01-31T07:53:05.360Z,2.50
2023-01-31T07:55:38.218Z,3.20
2023-01-31T07:58:11.261Z,3.50
2023-01-31T08:01:03.199Z,2.00
2023-01-31T08:03:37.008Z,2.17
2023-01-31T08:06:11.345Z,2.80
2023-01-31T08:08:47.623Z,3.67
2023-01-31T08:11:23.283Z,3.27
2023-01-31T08:13:56.516Z,2.97
2023-01-31T08:16:31.978Z,3.27
2023-01-31T08:19:05.041Z,2.43
2023-01-31T08:21:38.079Z,2.53
2023-01-31T08:24:11.346Z,3.40
2023-01-31T08:26:44.766Z,3.07
2023-01-31T08:29:18.084Z,2.73
2023-01-31T08:31:55.057Z,3.17
2023-01-31T08:34:28.196Z,3.30
2023-01-31T08:37:04.042Z,2.73
2023-01-31T08:39:38.028Z,2.60
2023-01-31T08:42:12.825Z,3.03
2023-01-31T08:44:45.930Z,2.73
2023-01-31T08:47:20.484Z,2.67
2023-01-31T08:49:55.551Z,3.10
2023-01-31T08:52:28.950Z,2.40
2023-01-31T08:55:04.785Z,3.07
2023-01-31T08:57:45.798Z,3.07
2023-01-31T09:00:25.916Z,3.80
2023-01-31T09:03:00.992Z,2.90
2023-01-31T09:05:34.531Z,2.50
2023-01-31T09:08:07.702Z,1.93
2023-01-31T09:10:40.715Z,2.73
2023-01-31T09:13:13.698Z,2.37
2023-01-31T09:15:47.004Z,2.73
2023-01-31T09:18:21.289Z,3.43
2023-01-31T09:20:54.210Z,2.70
2023-01-31T09:23:42.822Z,3.27
2023-01-31T09:26:18.917Z,3.43
2023-01-31T09:28:52.051Z,3.13
2023-01-31T09:31:24.986Z,3.67
2023-01-31T09:33:59.486Z,3.50
2023-01-31T09:36:32.415Z,3.20
2023-01-31T09:39:05.457Z,3.70
2023-01-31T09:41:39.767Z,3.87
2023-01-31T09:44:14.627Z,3.43
2023-01-31T09:46:51.119Z,3.67
2023-01-31T09:49:28.419Z,3.77
2023-01-31T09:52:02.288Z,4.50
2023-01-31T09:54:37.247Z,3.70
2023-01-31T09:57:23.245Z,3.97
2023-01-31T10:00:01.185Z,5.13
2023-01-31T10:02:55.089Z,4.10
2023-01-31T10:05:32.834Z,3.27
2023-01-31T10:08:10.109Z,4.63
2023-01-31T10:10:46.387Z,3.97
2023-01-31T10:13:22.629Z,3.97
2023-01-31T10:15:57.748Z,3.33
2023-01-31T10:18:32.692Z,3.23
2023-01-31T10:21:08.078Z,3.00
2023-01-31T10:23:43.025Z,4.20
2023-01-31T10:26:19.442Z,3.87
2023-01-31T10:28:56.081Z,3.77
2023-01-31T10:31:36.137Z,3.83
2023-01-31T10:34:14.119Z,3.13
2023-01-31T10:36:51.367Z,3.90
2023-01-31T10:39:26.231Z,3.37
2023-01-31T10:42:14.410Z,4.17
2023-01-31T10:44:52.688Z,3.00
2023-01-31T10:47:28.905Z,3.30
2023-01-31T10:50:12.843Z,3.43
2023-01-31T10:53:02.323Z,2.83
2023-01-31T10:55:42.263Z,3.57
2023-01-31T10:58:16.367Z,2.93
2023-01-31T11:00:49.609Z,3.80
2023-01-31T11:03:22.705Z,3.40
2023-01-31T11:05:57.240Z,3.47
2023-01-31T11:08:35.138Z,3.77
2023-01-31T11:11:09.326Z,4.43
2023-01-31T11:13:42.329Z,3.70
2023-01-31T11:16:16.061Z,3.53
2023-01-31T11:18:51.133Z,3.40
2023-01-31T11:21:25.443Z,4.40
2023-01-31T11:24:02.013Z,4.33
2023-01-31T11:26:36.296Z,4.07
2023-01-31T11:29:11.687Z,4.30
2023-01-31T11:31:45.798Z,5.10
2023-01-31T11:34:21.013Z,3.40
2023-01-31T11:36:54.744Z,3.13
2023-01-31T11:39:34.521Z,4.17
2023-01-31T11:42:08.633Z,5.07
2023-01-31T11:44:57.508Z,5.57
2023-01-31T11:47:35.453Z,4.60
2023-01-31T11:50:09.192Z,4.67
2023-01-31T11:52:42.504Z,4.37
2023-01-31T11:55:21.551Z,4.73
2023-01-31T11:57:59.614Z,3.90
2023-01-31T12:00:42.818Z,4.80
2023-01-31T12:03:17.782Z,5.67
2023-01-31T12:06:01.598Z,5.57
2023-01-31T12:08:37.354Z,5.50
2023-01-31T12:11:26.853Z,6.00
2023-01-31T12:14:03.767Z,5.53
2023-01-31T12:16:42.421Z,6.37
2023-01-31T12:19:22.941Z,5.47
2023-01-31T12:22:04.555Z,6.67
2023-01-31T12:24:41.949Z,4.90
2023-01-31T12:27:29.025Z,5.70
2023-01-31T12:30:15.422Z,6.00
2023-01-31T12:32:56.719Z,4.97
2023-01-31T12:35:42.656Z,5.07
2023-01-31T12:38:38.793Z,5.37
2023-01-31T12:41:22.718Z,5.07
2023-01-31T12:44:16.661Z,3.87
2023-01-31T12:47:09.949Z,6.00
2023-01-31T12:49:54.494Z,6.83
2023-01-31T12:52:58.183Z,6.13
2023-01-31T12:55:32.788Z,7.87
2023-01-31T12:58:12.767Z,7.20
2023-01-31T13:00:52.509Z,6.87
2023-01-31T13:03:38.984Z,7.10
2023-01-31T13:06:15.725Z,7.43
2023-01-31T13:09:06.863Z,7.03
2023-01-31T13:11:43.570Z,7.30
2023-01-31T13:14:20.100Z,6.43
2023-01-31T13:16:57.351Z,7.60
2023-01-31T13:19:35.069Z,8.77
2023-01-31T13:22:14.354Z,8.50
2023-01-31T13:24:49.553Z,8.07
2023-01-31T13:27:24.400Z,8.47
2023-01-31T13:29:59.072Z,6.67
2023-01-31T13:32:35.712Z,6.53
2023-01-31T13:35:15.225Z,7.23
2023-01-31T13:37:50.559Z,6.93
2023-01-31T13:40:26.835Z,4.80
2023-01-31T13:43:03.823Z,7.07
2023-01-31T13:45:48.447Z,6.60
2023-01-31T13:48:29.443Z,6.20
2023-01-31T13:51:06.171Z,4.67
2023-01-31T13:53:43.781Z,4.90
2023-01-31T13:56:21.527Z,3.73
2023-01-31T13:58:56.144Z,6.20
2023-01-31T14:01:31.920Z,4.27
2023-01-31T14:04:30.920Z,6.03
2023-01-31T14:07:21.576Z,3.13
2023-01-31T14:10:12.935Z,5.17
2023-01-31T14:12:45.792Z,5.07
2023-01-31T14:15:37.114Z,4.57
2023-01-31T14:18:12.040Z,5.20
2023-01-31T14:20:46.199Z,4.20
2023-01-31T14:23:29.700Z,4.40
2023-01-31T14:26:02.686Z,5.27
2023-01-31T14:28:37.296Z,4.60
2023-01-31T14:31:14.153Z,4.70
2023-01-31T14:33:48.597Z,5.17
2023-01-31T14:36:33.999Z,5.17
2023-01-31T14:39:20.177Z,4.53
2023-01-31T14:42:09.997Z,4.90
2023-01-31T14:44:52.637Z,4.67
2023-01-31T14:47:34.820Z,5.07
2023-01-31T14:50:34.587Z,3.77
2023-01-31T14:53:15.699Z,4.83
2023-01-31T14:56:05.629Z,4.87
2023-01-31T14:58:45.026Z,4.20
2023-01-31T15:01:20.112Z,4.17
2023-01-31T15:03:54.687Z,4.60
2023-01-31T15:06:29.302Z,4.50
2023-01-31T15:09:23.147Z,3.67
2023-01-31T15:12:00.824Z,4.80
2023-01-31T15:14:42.742Z,3.70
2023-01-31T15:17:33.778Z,5.70
2023-01-31T15:20:15.241Z,4.13
2023-01-31T15:22:48.888Z,6.10
2023-01-31T15:25:30.092Z,3.10
2023-01-31T15:28:06.578Z,5.53
2023-01-31T15:30:41.220Z,5.27
2023-01-31T15:33:16.867Z,4.50
2023-01-31T15:35:53.862Z,6.00
2023-01-31T15:38:37.321Z,6.47
2023-01-31T15:41:18.481Z,6.40
2023-01-31T15:43:53.671Z,3.57
2023-01-31T15:46:29.188Z,5.27
2023-01-31T15:49:02.268Z,5.90
2023-01-31T15:51:35.267Z,5.80
2023-01-31T15:54:10.803Z,7.43
2023-01-31T15:56:44.335Z,7.03
2023-01-31T15:59:21.680Z,6.17
2023-01-31T16:01:58.347Z,6.37
2023-01-31T16:04:31.645Z,5.23
2023-01-31T16:07:04.631Z,6.33
2023-01-31T16:09:41.958Z,7.27
2023-01-31T16:12:15.460Z,7.47
2023-01-31T16:14:51.248Z,5.97
2023-01-31T16:17:24.826Z,7.83
2023-01-31T16:19:58.555Z,9.30
2023-01-31T16:22:32.336Z,7.73
2023-01-31T16:25:05.699Z,5.27
2023-01-31T16:27:45.353Z,8.77
2023-01-31T16:30:20.078Z,8.33
2023-01-31T16:32:54.919Z,6.53
2023-01-31T16:35:29.222Z,7.10
2023-01-31T16:38:03.967Z,7.17
2023-01-31T16:40:38.273Z,5.83
2023-01-31T16:43:12.242Z,5.50
2023-01-31T16:45:54.563Z,8.67
2023-01-31T16:48:28.102Z,7.30
2023-01-31T16:51:09.003Z,7.53
2023-01-31T16:53:41.991Z,7.60
2023-01-31T16:56:19.802Z,7.67
2023-01-31T16:58:54.619Z,9.17
2023-01-31T17:01:30.661Z,6.43
2023-01-31T17:04:05.636Z,8.13
2023-01-31T17:06:42.683Z,9.00
2023-01-31T17:09:17.073Z,9.47
2023-01-31T17:11:50.054Z,9.23
2023-01-31T17:14:22.967Z,6.90
2023-01-31T17:16:59.012Z,7.50
2023-01-31T17:19:31.711Z,7.10
2023-01-31T17:22:07.026Z,7.93
2023-01-31T17:24:40.042Z,8.93
2023-01-31T17:27:16.899Z,6.07
2023-01-31T17:29:49.647Z,9.93
2023-01-31T17:32:26.714Z,9.77
2023-01-31T17:34:59.616Z,11.90
2023-01-31T17:37:34.969Z,8.07
2023-01-31T17:40:08.065Z,8.53
2023-01-31T17:42:41.590Z,7.77
2023-01-31T17:45:15.450Z,11.23
2023-01-31T17:47:50.310Z,9.80
2023-01-31T17:50:24.839Z,9.93
2023-01-31T17:52:57.767Z,8.13
2023-01-31T17:55:32.364Z,8.17
2023-01-31T17:58:05.074Z,10.20
2023-01-31T18:00:37.938Z,9.10
2023-01-31T18:03:16.665Z,7.47
2023-01-31T18:05:54.815Z,9.53
2023-01-31T18:08:27.510Z,7.70
2023-01-31T18:11:03.881Z,8.93
2023-01-31T18:13:38.185Z,9.10
2023-01-31T18:16:12.360Z,9.53
2023-01-31T18:18:46.695Z,9.20
2023-01-31T18:21:21.114Z,8.63
2023-01-31T18:23:55.203Z,6.47
2023-01-31T18:26:28.624Z,9.73
2023-01-31T18:29:01.478Z,8.93
2023-01-31T18:31:34.575Z,6.47
2023-01-31T18:34:08.979Z,6.20
2023-01-31T18:36:41.953Z,7.13
2023-01-31T18:39:14.939Z,7.30
2023-01-31T18:41:50.934Z,6.23
2023-01-31T18:44:23.921Z,5.70
2023-01-31T18:46:56.852Z,6.53
2023-01-31T18:49:33.948Z,5.43
2023-01-31T18:52:09.365Z,6.40
2023-01-31T18:54:48.995Z,6.33
2023-01-31T18:57:21.786Z,4.63
2023-01-31T18:59:54.722Z,4.80
2023-01-31T19:02:30.899Z,5.40
2023-01-31T19:05:05.546Z,5.10
2023-01-31T19:07:41.563Z,5.97
2023-01-31T19:10:14.584Z,5.30
2023-01-31T19:12:48.418Z,3.93
2023-01-31T19:15:21.571Z,4.47
2023-01-31T19:17:57.959Z,3.00
2023-01-31T19:20:35.115Z,4.37
2023-01-31T19:23:07.977Z,2.20
2023-01-31T19:25:41.617Z,2.67
2023-01-31T19:28:14.858Z,1.80
2023-01-31T19:30:47.797Z,1.50
2023-01-31T19:33:23.492Z,1.60
2023-01-31T19:35:57.995Z,1.50
2023-01-31T19:38:32.997Z,1.13
2023-01-31T19:41:07.167Z,1.50
2023-01-31T19:43:40.092Z,1.27
2023-01-31T19:46:13.099Z,1.00
2023-01-31T19:48:46.329Z,1.80
2023-01-31T19:51:21.951Z,2.00
2023-01-31T19:53:55.510Z,2.10
2023-01-31T19:56:28.602Z,1.80
2023-01-31T19:59:02.847Z,1.90
2023-01-31T20:01:38.028Z,1.50
2023-01-31T20:04:11.031Z,1.93
2023-01-31T20:06:45.261Z,1.80
2023-01-31T20:09:20.302Z,2.17
2023-01-31T20:11:53.989Z,2.63
2023-01-31T20:14:30.597Z,1.80
2023-01-31T20:17:03.425Z,2.17
2023-01-31T20:19:38.973Z,2.23
2023-01-31T20:22:15.516Z,1.67
2023-01-31T20:24:48.312Z,1.90
2023-01-31T20:27:21.466Z,1.87
2023-01-31T20:29:54.624Z,2.47
2023-01-31T20:32:29.255Z,2.13
2023-01-31T20:35:02.216Z,2.27
2023-01-31T20:37:36.595Z,2.07
2023-01-31T20:40:10.293Z,1.53
2023-01-31T20:42:42.880Z,2.43
2023-01-31T20:45:15.803Z,1.87
2023-01-31T20:47:48.570Z,2.47
2023-01-31T20:50:21.606Z,2.70
2023-01-31T20:52:56.285Z,1.90
2023-01-31T20:55:30.563Z,2.00
2023-01-31T20:58:03.384Z,2.97
2023-01-31T21:00:39.441Z,2.73
2023-01-31T21:03:15.798Z,2.10
2023-01-31T21:05:48.765Z,3.10
2023-01-31T21:08:22.946Z,2.33
2023-01-31T21:10:56.461Z,2.87
2023-01-31T21:13:32.667Z,3.53
2023-01-31T21:16:06.615Z,3.40
2023-01-31T21:18:40.516Z,2.87
2023-01-31T21:21:23.397Z,2.77
2023-01-31T21:24:00.582Z,2.63
2023-01-31T21:26:33.472Z,2.40
2023-01-31T21:29:06.127Z,3.07
2023-01-31T21:31:39.366Z,3.13
2023-01-31T21:34:12.149Z,2.77
2023-01-31T21:36:45.843Z,2.90
2023-01-31T21:39:22.128Z,2.37
2023-01-31T21:42:12.313Z,2.47
2023-01-31T21:44:45.264Z,1.77
2023-01-31T21:47:18.681Z,1.50
2023-01-31T21:49:51.811Z,1.20
2023-01-31T21:52:28.401Z,1.97
2023-01-31T21:55:05.210Z,1.57
2023-01-31T21:57:40.914Z,1.57
2023-01-31T22:00:14.196Z,1.20
2023-01-31T22:02:51.898Z,1.47
2023-01-31T22:05:24.666Z,1.50
2023-01-31T22:07:57.406Z,1.40
2023-01-31T22:10:36.377Z,1.77
2023-01-31T22:13:09.238Z,1.93
2023-01-31T22:15:42.056Z,1.60
2023-01-31T22:18:14.936Z,1.83
2023-01-31T22:20:47.823Z,1.83
2023-01-31T22:23:20.487Z,1.80
2023-01-31T22:25:57.597Z,2.00
2023-01-31T22:28:31.197Z,1.83
2023-01-31T22:31:05.322Z,1.97
2023-01-31T22:33:39.092Z,1.90
2023-01-31T22:36:12.987Z,2.13
2023-01-31T22:38:47.175Z,2.30
2023-01-31T22:41:21.721Z,2.50
2023-01-31T22:43:55.006Z,3.10
2023-01-31T22:46:28.638Z,3.23
2023-01-31T22:49:01.511Z,3.03
2023-01-31T22:51:34.458Z,2.40
2023-01-31T22:54:07.434Z,2.43
2023-01-31T22:56:42.369Z,2.80
2023-01-31T22:59:15.195Z,2.23
2023-01-31T23:01:48.155Z,2.50
2023-01-31T23:04:21.485Z,2.93
2023-01-31T23:06:54.506Z,2.27
2023-01-31T23:09:27.577Z,3.77
2023-01-31T23:12:01.883Z,2.60
2023-01-31T23:14:34.940Z,2.93
2023-01-31T23:17:26.216Z,2.13
2023-01-31T23:19:59.034Z,3.47
2023-01-31T23:22:32.189Z,3.27
2023-01-31T23:25:05.877Z,3.20
2023-01-31T23:27:40.530Z,2.47
2023-01-31T23:30:13.916Z,3.67
2023-01-31T23:32:46.797Z,3.23
2023-01-31T23:35:19.705Z,3.73
2023-01-31T23:37:53.401Z,3.20
2023-01-31T23:40:26.564Z,3.63
2023-01-31T23:43:00.976Z,3.17
2023-01-31T23:45:33.980Z,3.10
2023-01-31T23:48:07.058Z,3.83
2023-01-31T23:50:40.442Z,2.97
2023-01-31T23:53:13.168Z,2.47
2023-01-31T23:55:46.076Z,3.90
2023-01-31T23:58:20.231Z,2.90
